createdAt,value
2017-09-02T00:01:19.300Z,23.07
2017-09-02T00:03:46.833Z,23.77
2017-09-02T00:06:14.362Z,22.77
2017-09-02T00:08:41.896Z,18.53
2017-09-02T00:11:09.427Z,21.43
2017-09-02T00:13:36.953Z,22.37
2017-09-02T00:16:04.491Z,14.23
2017-09-02T00:18:32.005Z,19.20
2017-09-02T00:20:59.534Z,26.03
2017-09-02T00:23:27.059Z,22.10
2017-09-02T00:25:54.580Z,21.00
2017-09-02T00:28:22.118Z,23.40
2017-09-02T00:30:49.641Z,24.77
2017-09-02T00:33:17.164Z,25.70
2017-09-02T00:35:44.690Z,20.10
2017-09-02T00:38:12.212Z,21.20
2017-09-02T00:40:39.786Z,23.13
2017-09-02T00:43:07.328Z,23.30
2017-09-02T00:45:34.841Z,19.07
2017-09-02T00:48:02.383Z,18.60
2017-09-02T00:50:29.902Z,18.77
2017-09-02T00:52:57.435Z,18.10
2017-09-02T00:55:24.959Z,22.40
2017-09-02T00:57:52.484Z,20.80
2017-09-02T01:00:20.020Z,23.77
2017-09-02T01:02:47.542Z,21.97
2017-09-02T01:05:15.066Z,18.03
2017-09-02T01:07:42.601Z,18.83
2017-09-02T01:10:10.122Z,19.60
2017-09-02T01:12:37.756Z,21.50
2017-09-02T01:15:05.300Z,20.10
2017-09-02T01:17:32.822Z,21.87
2017-09-02T01:20:00.340Z,27.47
2017-09-02T01:22:27.861Z,22.10
2017-09-02T01:24:55.371Z,38.97
2017-09-02T01:27:22.918Z,21.63
2017-09-02T01:29:50.496Z,18.83
2017-09-02T01:32:18.035Z,15.30
2017-09-02T01:34:45.569Z,17.27
2017-09-02T01:37:13.102Z,21.50
2017-09-02T01:39:40.615Z,17.23
2017-09-02T01:42:08.155Z,18.30
2017-09-02T01:44:35.678Z,18.70
2017-09-02T01:47:03.934Z,24.70
2017-09-02T01:49:31.479Z,18.93
2017-09-02T01:51:59.006Z,31.67
2017-09-02T01:54:26.550Z,29.60
2017-09-02T01:56:54.068Z,26.20
2017-09-02T01:59:21.575Z,21.47
2017-09-02T02:01:49.098Z,26.17
2017-09-02T02:04:16.611Z,30.93
2017-09-02T02:06:44.156Z,27.67
2017-09-02T02:09:11.682Z,29.33
2017-09-02T02:11:39.199Z,30.70
2017-09-02T02:14:06.748Z,20.10
2017-09-02T02:16:34.278Z,20.23
2017-09-02T02:19:01.853Z,26.80
2017-09-02T02:21:29.383Z,31.40
2017-09-02T02:23:56.932Z,18.40
2017-09-02T02:26:24.452Z,27.33
2017-09-02T02:28:51.995Z,21.70
2017-09-02T02:31:19.534Z,17.03
2017-09-02T02:33:47.066Z,33.47
2017-09-02T02:36:14.580Z,22.80
2017-09-02T02:38:42.092Z,24.17
2017-09-02T02:41:09.616Z,37.67
2017-09-02T02:43:37.139Z,24.40
2017-09-02T02:46:04.664Z,25.23
2017-09-02T02:48:32.183Z,38.33
2017-09-02T02:50:59.724Z,38.90
2017-09-02T02:53:27.243Z,34.93
2017-09-02T02:55:54.754Z,22.57
2017-09-02T02:58:22.299Z,18.40
2017-09-02T03:00:49.815Z,33.03
2017-09-02T03:03:17.364Z,24.40
2017-09-02T03:05:44.890Z,29.33
2017-09-02T03:08:12.417Z,34.93
2017-09-02T03:10:39.973Z,32.77
2017-09-02T03:13:07.498Z,37.63
2017-09-02T03:15:35.056Z,46.77
2017-09-02T03:18:02.587Z,23.13
2017-09-02T03:20:30.100Z,42.47
2017-09-02T03:22:57.627Z,33.47
2017-09-02T03:25:25.147Z,31.93
2017-09-02T03:27:52.670Z,22.60
2017-09-02T03:30:20.188Z,37.03
2017-09-02T03:32:47.768Z,30.50
2017-09-02T03:35:15.318Z,35.23
2017-09-02T03:37:42.833Z,40.60
2017-09-02T03:40:10.359Z,42.03
2017-09-02T03:42:37.876Z,32.70
2017-09-02T03:45:05.393Z,38.83
2017-09-02T03:47:33.082Z,23.40
2017-09-02T03:50:00.609Z,28.93
2017-09-02T03:52:28.132Z,42.87
2017-09-02T03:54:55.677Z,33.13
2017-09-02T03:57:23.224Z,41.00
2017-09-02T03:59:50.769Z,33.63
2017-09-02T04:02:18.301Z,41.63
2017-09-02T04:04:45.845Z,48.20
2017-09-02T04:07:13.379Z,40.30
2017-09-02T04:09:40.902Z,38.43
2017-09-02T04:12:08.436Z,34.53
2017-09-02T04:14:36.079Z,36.90
2017-09-02T04:17:03.605Z,31.60
2017-09-02T04:19:31.110Z,28.90
2017-09-02T04:21:58.672Z,37.60
2017-09-02T04:24:26.209Z,35.43
2017-09-02T04:26:53.752Z,30.63
2017-09-02T04:29:21.277Z,35.30
2017-09-02T04:31:48.790Z,31.80
2017-09-02T04:34:16.318Z,20.37
2017-09-02T04:36:43.852Z,27.90
2017-09-02T04:39:11.372Z,30.33
2017-09-02T04:41:38.895Z,32.37
2017-09-02T04:44:06.436Z,24.63
2017-09-02T04:46:33.977Z,30.50
2017-09-02T04:49:01.500Z,20.47
2017-09-02T04:51:29.011Z,23.13
2017-09-02T04:53:56.537Z,21.80
2017-09-02T04:56:24.059Z,44.90
2017-09-02T04:58:51.602Z,38.87
2017-09-02T05:01:19.143Z,41.70
2017-09-02T05:03:46.677Z,36.20
2017-09-02T05:06:14.200Z,30.67
2017-09-02T05:08:41.885Z,32.60
2017-09-02T05:11:09.446Z,32.83
2017-09-02T05:13:36.967Z,31.13
2017-09-02T05:16:04.486Z,23.77
2017-09-02T05:18:32.010Z,15.67
2017-09-02T05:20:59.550Z,19.50
2017-09-02T05:23:27.063Z,23.80
2017-09-02T05:25:54.588Z,14.87
2017-09-02T05:28:22.117Z,19.30
2017-09-02T05:30:49.642Z,23.83
2017-09-02T05:33:17.180Z,23.67
2017-09-02T05:35:44.720Z,23.93
2017-09-02T05:38:12.298Z,27.60
2017-09-02T05:40:39.834Z,28.87
2017-09-02T05:43:07.364Z,24.83
2017-09-02T05:45:34.896Z,26.60
2017-09-02T05:48:02.428Z,28.50
2017-09-02T05:50:29.960Z,25.73
2017-09-02T05:52:57.487Z,31.87
2017-09-02T05:55:25.010Z,33.83
2017-09-02T05:57:52.524Z,31.70
2017-09-02T06:00:20.043Z,41.10
2017-09-02T06:02:47.552Z,42.67
2017-09-02T06:05:15.088Z,42.10
2017-09-02T06:07:42.621Z,44.80
2017-09-02T06:10:10.152Z,49.27
2017-09-02T06:12:37.695Z,60.20
2017-09-02T06:15:05.214Z,59.50
2017-09-02T06:17:32.746Z,58.37
2017-09-02T06:20:00.275Z,52.50
2017-09-02T06:22:27.812Z,51.53
2017-09-02T06:24:55.340Z,49.23
2017-09-02T06:27:22.876Z,62.03
2017-09-02T06:29:50.410Z,59.83
2017-09-02T06:32:17.931Z,58.03
2017-09-02T06:34:45.464Z,59.67
2017-09-02T06:37:12.984Z,47.33
2017-09-02T06:39:40.551Z,52.33
2017-09-02T06:42:08.068Z,47.80
2017-09-02T06:44:35.594Z,51.90
2017-09-02T06:47:03.119Z,42.83
2017-09-02T06:49:31.145Z,43.90
2017-09-02T06:51:58.697Z,46.00
2017-09-02T06:54:26.218Z,47.70
2017-09-02T06:56:53.740Z,44.00
2017-09-02T06:59:21.279Z,49.47
2017-09-02T07:01:48.826Z,35.93
2017-09-02T07:04:16.345Z,40.50
2017-09-02T07:06:43.877Z,43.93
2017-09-02T07:09:11.400Z,41.00
2017-09-02T07:11:38.927Z,38.30
2017-09-02T07:14:06.498Z,44.00
2017-09-02T07:16:34.017Z,38.97
2017-09-02T07:19:01.537Z,41.07
2017-09-02T07:21:29.054Z,34.90
2017-09-02T07:23:56.577Z,35.40
2017-09-02T07:26:24.093Z,36.87
2017-09-02T07:28:51.606Z,41.20
2017-09-02T07:31:19.140Z,33.77
2017-09-02T07:33:46.666Z,36.83
2017-09-02T07:36:14.192Z,38.33
2017-09-02T07:38:41.734Z,33.20
2017-09-02T07:41:09.277Z,32.60
2017-09-02T07:43:36.789Z,28.60
2017-09-02T07:46:04.338Z,32.20
2017-09-02T07:48:31.874Z,34.30
2017-09-02T07:50:59.397Z,31.03
2017-09-02T07:53:26.903Z,34.80
2017-09-02T07:55:54.431Z,37.03
2017-09-02T07:58:21.987Z,28.67
2017-09-02T08:00:49.505Z,29.87
2017-09-02T08:03:17.024Z,25.43
2017-09-02T08:05:44.550Z,25.10
2017-09-02T08:08:12.073Z,27.07
2017-09-02T08:10:39.594Z,27.47
2017-09-02T08:13:07.123Z,35.73
2017-09-02T08:15:34.663Z,32.73
2017-09-02T08:18:02.199Z,28.47
2017-09-02T08:20:29.724Z,27.67
2017-09-02T08:22:57.271Z,20.43
2017-09-02T08:25:24.792Z,21.83
2017-09-02T08:27:52.329Z,23.07
2017-09-02T08:30:19.856Z,20.37
2017-09-02T08:32:47.404Z,21.83
2017-09-02T08:35:14.931Z,24.20
2017-09-02T08:37:42.466Z,18.87
2017-09-02T08:40:10.002Z,20.40
2017-09-02T08:42:37.550Z,19.70
2017-09-02T08:45:05.069Z,17.60
2017-09-02T08:47:32.693Z,18.10
2017-09-02T08:50:00.224Z,19.23
2017-09-02T08:52:27.877Z,16.57
2017-09-02T08:54:55.387Z,18.30
2017-09-02T08:57:22.947Z,16.60
2017-09-02T08:59:50.460Z,17.60
2017-09-02T09:02:18.021Z,18.20
2017-09-02T09:04:45.539Z,16.73
2017-09-02T09:07:13.060Z,18.60
2017-09-02T09:09:40.592Z,16.50
2017-09-02T09:12:08.225Z,17.30
2017-09-02T09:14:35.759Z,17.20
2017-09-02T09:17:03.293Z,22.13
2017-09-02T09:19:30.824Z,18.20
2017-09-02T09:21:58.359Z,14.83
2017-09-02T09:24:25.880Z,15.40
2017-09-02T09:26:53.420Z,13.60
2017-09-02T09:29:20.959Z,13.07
2017-09-02T09:31:48.486Z,13.10
2017-09-02T09:34:16.012Z,16.20
2017-09-02T09:36:43.550Z,13.40
2017-09-02T09:39:11.121Z,11.87
2017-09-02T09:41:38.637Z,12.93
2017-09-02T09:44:06.151Z,9.10
2017-09-02T09:46:33.676Z,11.57
2017-09-02T09:49:01.179Z,11.03
2017-09-02T09:51:28.708Z,15.83
2017-09-02T09:53:56.249Z,14.90
2017-09-02T09:56:23.772Z,11.70
2017-09-02T09:58:51.294Z,12.90
2017-09-02T10:01:18.825Z,10.27
2017-09-02T10:03:46.362Z,11.17
2017-09-02T10:06:13.883Z,10.23
2017-09-02T10:08:41.390Z,10.87
2017-09-02T10:11:08.916Z,11.40
2017-09-02T10:13:36.462Z,18.10
2017-09-02T10:16:03.992Z,23.00
2017-09-02T10:18:31.499Z,28.60
2017-09-02T10:20:59.027Z,12.70
2017-09-02T10:23:26.554Z,16.53
2017-09-02T10:25:54.068Z,13.10
2017-09-02T10:28:21.572Z,10.13
2017-09-02T10:30:49.083Z,8.80
2017-09-02T10:33:16.593Z,16.47
2017-09-02T10:35:44.108Z,12.23
2017-09-02T10:38:11.640Z,8.30
2017-09-02T10:40:39.168Z,7.27
2017-09-02T10:43:06.686Z,9.17
2017-09-02T10:45:34.268Z,8.40
2017-09-02T10:48:01.826Z,7.60
2017-09-02T10:50:29.343Z,8.53
2017-09-02T10:52:56.855Z,10.50
2017-09-02T10:55:24.365Z,6.87
2017-09-02T10:57:51.907Z,7.27
2017-09-02T11:00:19.443Z,9.30
2017-09-02T11:02:46.980Z,12.00
2017-09-02T11:05:14.510Z,7.03
2017-09-02T11:07:42.013Z,8.87
2017-09-02T11:10:09.540Z,8.83
2017-09-02T11:12:37.080Z,7.80
2017-09-02T11:15:04.603Z,5.90
2017-09-02T11:17:32.147Z,22.77
2017-09-02T11:19:59.658Z,11.83
2017-09-02T11:22:27.200Z,7.57
2017-09-02T11:24:55.615Z,18.30
2017-09-02T11:27:23.197Z,7.03
2017-09-02T11:29:50.725Z,7.23
2017-09-02T11:32:18.252Z,9.20
2017-09-02T11:34:45.809Z,15.43
2017-09-02T11:37:13.334Z,5.67
2017-09-02T11:39:40.844Z,6.40
2017-09-02T11:42:08.373Z,5.67
2017-09-02T11:44:35.911Z,7.50
2017-09-02T11:47:03.430Z,9.50
2017-09-02T11:49:30.952Z,10.77
2017-09-02T11:51:58.579Z,5.90
2017-09-02T11:54:26.115Z,6.90
2017-09-02T11:56:53.697Z,6.23
2017-09-02T11:59:21.214Z,6.70
2017-09-02T12:01:48.742Z,8.33
2017-09-02T12:04:16.255Z,7.50
2017-09-02T12:06:43.796Z,7.37
2017-09-02T12:09:11.328Z,6.40
2017-09-02T12:11:38.841Z,5.43
2017-09-02T12:14:06.352Z,7.93
2017-09-02T12:16:33.964Z,6.70
2017-09-02T12:19:01.508Z,7.37
2017-09-02T12:21:29.025Z,6.23
2017-09-02T12:23:56.539Z,10.67
2017-09-02T12:26:24.064Z,6.37
2017-09-02T12:28:51.595Z,5.47
2017-09-02T12:31:19.108Z,6.60
2017-09-02T12:33:46.636Z,6.37
2017-09-02T12:36:14.143Z,6.73
2017-09-02T12:38:41.654Z,5.10
2017-09-02T12:41:09.171Z,7.87
2017-09-02T12:43:36.719Z,5.07
2017-09-02T12:46:04.223Z,8.07
2017-09-02T12:48:31.754Z,8.40
2017-09-02T12:50:59.296Z,8.17
2017-09-02T12:53:26.802Z,5.40
2017-09-02T12:55:54.303Z,7.27
2017-09-02T12:58:21.853Z,4.80
2017-09-02T13:00:49.367Z,6.37
2017-09-02T13:03:16.913Z,5.37
2017-09-02T13:05:44.446Z,4.90
2017-09-02T13:08:11.965Z,5.07
2017-09-02T13:10:39.495Z,5.13
2017-09-02T13:13:07.047Z,6.30
2017-09-02T13:15:34.553Z,4.93
2017-09-02T13:18:02.065Z,5.20
2017-09-02T13:20:29.595Z,5.57
2017-09-02T13:22:57.117Z,8.03
2017-09-02T13:25:24.628Z,7.27
2017-09-02T13:27:52.132Z,6.53
2017-09-02T13:30:19.644Z,4.30
2017-09-02T13:32:47.159Z,6.13
2017-09-02T13:35:14.684Z,4.57
2017-09-02T13:37:42.225Z,5.70
2017-09-02T13:40:09.750Z,4.70
2017-09-02T13:42:37.263Z,5.63
2017-09-02T13:45:04.781Z,4.70
2017-09-02T13:47:32.303Z,4.83
2017-09-02T13:49:59.832Z,5.57
2017-09-02T13:52:27.411Z,5.23
2017-09-02T13:54:54.920Z,5.77
2017-09-02T13:57:22.443Z,3.97
2017-09-02T13:59:49.973Z,10.60
2017-09-02T14:02:17.480Z,5.03
2017-09-02T14:04:45.027Z,3.70
2017-09-02T14:07:12.546Z,7.53
2017-09-02T14:09:40.055Z,6.93
2017-09-02T14:12:07.593Z,5.40
2017-09-02T14:14:35.147Z,5.33
2017-09-02T14:17:02.655Z,4.70
2017-09-02T14:19:30.185Z,6.93
2017-09-02T14:21:57.699Z,6.87
2017-09-02T14:24:25.205Z,7.87
2017-09-02T14:26:52.769Z,5.60
2017-09-02T14:29:20.284Z,6.97
2017-09-02T14:31:47.819Z,5.37
2017-09-02T14:34:15.360Z,7.10
2017-09-02T14:36:42.881Z,6.73
2017-09-02T14:39:10.400Z,9.63
2017-09-02T14:41:37.918Z,13.23
2017-09-02T14:44:05.493Z,6.43
2017-09-02T14:46:33.011Z,8.70
2017-09-02T14:49:00.516Z,6.40
2017-09-02T14:51:28.032Z,5.13
2017-09-02T14:53:55.568Z,6.40
2017-09-02T14:56:23.092Z,6.53
2017-09-02T14:58:50.623Z,8.03
2017-09-02T15:01:18.131Z,7.40
2017-09-02T15:03:45.647Z,5.20
2017-09-02T15:06:13.180Z,5.97
2017-09-02T15:08:40.684Z,6.17
2017-09-02T15:11:08.211Z,5.23
2017-09-02T15:13:35.711Z,6.10
2017-09-02T15:16:03.226Z,5.50
2017-09-02T15:18:30.740Z,7.00
2017-09-02T15:20:58.312Z,11.57
2017-09-02T15:23:25.830Z,4.60
2017-09-02T15:25:53.341Z,5.43
2017-09-02T15:28:20.888Z,5.43
2017-09-02T15:30:48.414Z,4.90
2017-09-02T15:33:15.964Z,6.57
2017-09-02T15:35:43.493Z,4.20
2017-09-02T15:38:11.027Z,4.70
2017-09-02T15:40:38.552Z,4.50
2017-09-02T15:43:06.059Z,4.90
2017-09-02T15:45:33.582Z,8.77
2017-09-02T15:48:01.124Z,7.50
2017-09-02T15:50:28.699Z,5.00
2017-09-02T15:52:56.212Z,6.03
2017-09-02T15:55:23.732Z,4.47
2017-09-02T15:57:51.267Z,6.33
2017-09-02T16:00:18.794Z,4.00
2017-09-02T16:02:46.336Z,6.60
2017-09-02T16:05:13.851Z,5.90
2017-09-02T16:07:41.404Z,4.23
2017-09-02T16:10:08.924Z,3.83
2017-09-02T16:12:36.446Z,4.37
2017-09-02T16:15:03.970Z,5.40
2017-09-02T16:17:31.486Z,5.10
2017-09-02T16:19:58.995Z,11.60
2017-09-02T16:22:26.506Z,6.00
2017-09-02T16:24:54.022Z,3.87
2017-09-02T16:27:21.540Z,8.43
2017-09-02T16:29:49.091Z,14.37
2017-09-02T16:32:16.607Z,6.17
2017-09-02T16:34:44.118Z,6.90
2017-09-02T16:37:11.638Z,8.63
2017-09-02T16:39:39.154Z,18.13
2017-09-02T16:42:06.659Z,6.13
2017-09-02T16:44:34.200Z,6.67
2017-09-02T16:47:01.724Z,6.33
2017-09-02T16:49:29.264Z,5.20
2017-09-02T16:51:56.804Z,6.30
2017-09-02T16:54:24.341Z,4.37
2017-09-02T16:56:51.851Z,8.03
2017-09-02T16:59:19.351Z,6.50
2017-09-02T17:01:46.868Z,8.37
2017-09-02T17:04:14.458Z,9.17
2017-09-02T17:06:42.016Z,6.90
2017-09-02T17:09:09.527Z,8.17
2017-09-02T17:11:37.052Z,6.03
2017-09-02T17:14:04.586Z,6.20
2017-09-02T17:16:32.112Z,6.03
2017-09-02T17:18:59.646Z,6.10
2017-09-02T17:21:27.184Z,7.10
2017-09-02T17:23:54.724Z,7.43
2017-09-02T17:26:22.232Z,7.70
2017-09-02T17:28:49.749Z,9.20
2017-09-02T17:31:17.345Z,8.03
2017-09-02T17:33:44.884Z,10.17
2017-09-02T17:36:12.416Z,8.87
2017-09-02T17:38:39.924Z,5.90
2017-09-02T17:41:07.459Z,7.77
2017-09-02T17:43:34.980Z,6.33
2017-09-02T17:46:02.537Z,5.90
2017-09-02T17:48:30.055Z,6.67
2017-09-02T17:50:57.595Z,6.57
2017-09-02T17:53:25.107Z,5.40
2017-09-02T17:55:52.647Z,5.47
2017-09-02T17:58:20.157Z,4.77
2017-09-02T18:00:47.668Z,11.63
2017-09-02T18:03:15.186Z,5.20
2017-09-02T18:05:42.719Z,6.20
2017-09-02T18:08:10.243Z,5.43
2017-09-02T18:10:37.749Z,5.80
2017-09-02T18:13:05.267Z,7.03
2017-09-02T18:15:32.785Z,6.57
2017-09-02T18:18:00.331Z,8.07
2017-09-02T18:20:27.872Z,5.63
2017-09-02T18:22:55.399Z,6.27
2017-09-02T18:25:22.897Z,8.13
2017-09-02T18:27:50.403Z,4.63
2017-09-02T18:30:17.927Z,4.80
2017-09-02T18:32:45.435Z,4.97
2017-09-02T18:35:12.941Z,4.03
2017-09-02T18:37:40.457Z,4.27
2017-09-02T18:40:07.996Z,4.93
2017-09-02T18:42:35.510Z,5.00
2017-09-02T18:45:03.073Z,7.57
2017-09-02T18:47:30.622Z,5.97
2017-09-02T18:49:58.192Z,6.00
2017-09-02T18:52:25.712Z,5.70
2017-09-02T18:54:53.250Z,5.10
2017-09-02T18:57:20.790Z,4.70
2017-09-02T18:59:48.305Z,5.33
2017-09-02T19:02:15.839Z,6.63
2017-09-02T19:04:43.380Z,5.13
2017-09-02T19:07:10.920Z,7.50
2017-09-02T19:09:38.453Z,4.70
2017-09-02T19:12:05.968Z,4.70
2017-09-02T19:14:33.485Z,5.17
2017-09-02T19:17:01.031Z,5.23
2017-09-02T19:19:28.556Z,5.17
2017-09-02T19:21:56.072Z,4.93
2017-09-02T19:24:23.595Z,4.87
2017-09-02T19:26:51.224Z,5.10
2017-09-02T19:29:18.792Z,4.77
2017-09-02T19:31:46.356Z,5.57
2017-09-02T19:34:13.904Z,4.83
2017-09-02T19:36:41.418Z,4.43
2017-09-02T19:39:08.935Z,6.27
2017-09-02T19:41:36.503Z,4.50
2017-09-02T19:44:04.023Z,4.83
2017-09-02T19:46:31.531Z,4.87
2017-09-02T19:48:59.049Z,4.90
2017-09-02T19:51:26.604Z,5.63
2017-09-02T19:53:54.132Z,5.00
2017-09-02T19:56:21.699Z,6.57
2017-09-02T19:58:49.240Z,5.63
2017-09-02T20:01:16.780Z,4.97
2017-09-02T20:03:44.305Z,4.47
2017-09-02T20:06:11.829Z,6.73
2017-09-02T20:08:39.355Z,6.40
2017-09-02T20:11:06.985Z,7.40
2017-09-02T20:13:34.507Z,4.50
2017-09-02T20:16:02.053Z,6.60
2017-09-02T20:18:29.569Z,7.03
2017-09-02T20:20:57.136Z,6.17
2017-09-02T20:23:24.732Z,5.03
2017-09-02T20:25:52.285Z,6.23
2017-09-02T20:28:19.819Z,12.10
2017-09-02T20:30:47.327Z,9.13
2017-09-02T20:33:14.840Z,7.00
2017-09-02T20:35:42.363Z,6.23
2017-09-02T20:38:09.902Z,6.00
2017-09-02T20:40:37.440Z,7.40
2017-09-02T20:43:05.028Z,9.30
2017-09-02T20:45:32.643Z,8.57
2017-09-02T20:48:00.176Z,8.70
2017-09-02T20:50:27.817Z,7.60
2017-09-02T21:23:45.002Z,3.97
2017-09-02T21:26:11.752Z,6.80
2017-09-02T21:28:39.726Z,8.30
2017-09-02T21:35:25.695Z,5.57
2017-09-02T21:37:53.218Z,7.97
2017-09-02T21:40:21.086Z,3.57
2017-09-02T21:42:48.742Z,10.43
2017-09-02T21:45:16.276Z,5.87
2017-09-02T21:47:43.790Z,6.23
2017-09-02T21:50:11.295Z,4.20
2017-09-02T21:52:38.816Z,5.83
2017-09-02T21:55:06.359Z,4.77
2017-09-02T21:57:33.892Z,4.27
2017-09-02T22:00:01.402Z,5.03
2017-09-02T22:02:28.945Z,4.90
2017-09-02T22:04:56.465Z,4.67
2017-09-02T22:07:24.009Z,5.23
2017-09-02T22:09:51.561Z,10.93
2017-09-02T22:12:19.088Z,4.80
2017-09-02T22:14:46.593Z,5.43
2017-09-02T22:17:14.113Z,4.50
2017-09-02T22:19:41.654Z,5.40
2017-09-02T22:22:09.175Z,5.93
2017-09-02T22:24:37.040Z,4.37
2017-09-02T22:27:04.553Z,6.77
2017-09-02T22:29:32.078Z,4.90
2017-09-02T22:31:59.580Z,4.43
2017-09-02T22:34:27.102Z,5.13
2017-09-02T22:36:54.641Z,5.10
2017-09-02T22:39:22.151Z,13.63
2017-09-02T22:41:49.683Z,5.50
2017-09-02T22:44:17.197Z,12.07
2017-09-02T22:46:44.738Z,13.30
2017-09-02T22:49:12.319Z,8.43
2017-09-02T22:51:39.871Z,6.67
2017-09-02T22:54:07.378Z,6.63
2017-09-02T22:56:34.911Z,4.40
2017-09-02T22:59:02.425Z,6.87
2017-09-02T23:01:29.935Z,17.50
2017-09-02T23:03:57.435Z,4.90
2017-09-02T23:06:24.959Z,4.60
2017-09-02T23:08:55.021Z,4.10
2017-09-02T23:11:22.550Z,5.90
2017-09-02T23:13:50.074Z,5.90
2017-09-02T23:16:17.594Z,8.13
2017-09-02T23:18:45.132Z,6.13
2017-09-02T23:21:12.640Z,7.50
2017-09-02T23:23:40.163Z,4.77
2017-09-02T23:26:07.670Z,19.97
2017-09-02T23:28:35.195Z,8.03
2017-09-02T23:31:02.711Z,6.03
2017-09-02T23:33:30.234Z,5.77
2017-09-02T23:35:57.773Z,5.27
2017-09-02T23:38:25.364Z,5.47
2017-09-02T23:40:52.999Z,14.57
2017-09-02T23:43:20.536Z,8.03
2017-09-02T23:45:48.072Z,5.90
2017-09-02T23:48:15.592Z,7.97
2017-09-02T23:50:43.105Z,6.23
2017-09-02T23:53:10.606Z,7.40
2017-09-02T23:55:38.122Z,10.03
2017-09-02T23:58:05.658Z,5.50
